Список аэропортов
Фактическая погода:

Нет данных
Время (МСК)Темп. СВетерВлажностьДавлениеОблачностьОсадки
15:00+13С, 8 м/с34%1020 гПаясно
16:00+13С, 8 м/с32%1020 гПаясно
17:00+12С, 8 м/с30%1021 гПаясно
18:00+12С, 8 м/с28%1021 гПаясно
19:00+11С, 7 м/с30%1021 гПаясно
20:00+9С, 5 м/с35%1021 гПаясно
21:00+8С, 3 м/с43%1022 гПаясно
22:00+5С, 1 м/с54%1022 гПаясно
23:00+4СЗ, 1 м/с60%1022 гПаясно
22 апреля
00:00+3В, 1 м/с64%1021 гПаясно
01:00+3В, 2 м/с66%1022 гПаясно
02:00+2В, 2 м/с70%1021 гПаясно
03:00+2В, 2 м/с76%1021 гПаясно
04:00+2В, 2 м/с83%1021 гПаясно
05:00+1СВ, 2 м/с88%1021 гПаясно
06:00+1СВ, 2 м/с90%1021 гПаясно
07:00+1СВ, 2 м/с91%1021 гПамалооблачно
08:00+5СВ, 2 м/с78%1021 гПамалооблачно
09:00+8С, 4 м/с72%1021 гПамалооблачно
10:00+11С, 6 м/с56%1021 гПаясно
11:00+13СВ, 9 м/с40%1021 гПамалооблачно
12:00+14СВ, 10 м/с34%1021 гПаоблачно
13:00+14СВ, 10 м/с34%1021 гПаоблачно
14:00+15С, 10 м/с30%1021 гПамалооблачно
15:00+14С, 10 м/с26%1021 гПамалооблачно
16:00+14С, 9 м/с30%1021 гПаясно
17:00+14СВ, 8 м/с31%1022 гПаясно
18:00+13СВ, 7 м/с33%1022 гПаясно
19:00+12СВ, 6 м/с34%1023 гПаясно
20:00+11СВ, 4 м/с38%1024 гПаясно
21:00+9СВ, 2 м/с48%1024 гПаясно
22:00+7СВ, 1 м/с60%1025 гПаясно
23:00+6СВ, 1 м/с66%1024 гПаясно
23 апреля
00:00+6В, 2 м/с69%1024 гПамалооблачно
01:00+6В, 2 м/с70%1025 гПаоблачно
02:00+6В, 2 м/с68%1025 гПаоблачно
03:00+6СВ, 2 м/с69%1025 гПаоблачно
04:00+5СВ, 2 м/с73%1025 гПас прояснениями
05:00+4СВ, 2 м/с78%1026 гПамалооблачно
06:00+4СВ, 3 м/с80%1026 гПаясно
07:00+5В, 2 м/с76%1026 гПаясно
08:00+8СВ, 2 м/с65%1026 гПаясно
09:00+12СВ, 3 м/с56%1027 гПаясно
10:00+15С, 4 м/с44%1027 гПаясно
11:00+16С, 6 м/с38%1027 гПаясно
12:00+17СВ, 6 м/с34%1027 гПамалооблачно
13:00+18СВ, 6 м/с33%1027 гПамалооблачно
14:00+18СВ, 5 м/с32%1027 гПас прояснениями
15:00+18СВ, 4 м/с32%1027 гПаоблачно